createdAt,value
2023-01-08T00:02:17.835Z,7.80
2023-01-08T00:06:04.248Z,7.80
2023-01-08T00:09:47.797Z,7.80
2023-01-08T00:13:29.915Z,7.80
2023-01-08T00:17:11.701Z,7.90
2023-01-08T00:20:53.469Z,7.80
2023-01-08T00:24:36.479Z,7.80
2023-01-08T00:28:18.392Z,7.80
2023-01-08T00:32:00.217Z,7.80
2023-01-08T00:35:42.034Z,7.80
2023-01-08T00:39:23.894Z,7.80
2023-01-08T00:43:05.981Z,7.90
2023-01-08T00:46:47.792Z,7.90
2023-01-08T00:50:29.566Z,8.00
2023-01-08T00:54:11.914Z,8.00
2023-01-08T00:57:53.757Z,8.10
2023-01-08T01:01:35.714Z,8.20
2023-01-08T01:05:17.799Z,8.20
2023-01-08T01:08:59.547Z,8.30
2023-01-08T01:12:41.673Z,8.30
2023-01-08T01:16:24.483Z,8.20
2023-01-08T01:20:08.185Z,8.20
2023-01-08T01:23:50.316Z,8.20
2023-01-08T01:27:32.102Z,8.20
2023-01-08T01:31:14.359Z,8.20
2023-01-08T01:34:56.185Z,8.20
2023-01-08T01:38:38.027Z,8.20
2023-01-08T01:42:39.469Z,8.10
2023-01-08T01:46:37.996Z,8.10
2023-01-08T01:50:29.528Z,8.10
2023-01-08T01:54:12.939Z,8.00
2023-01-08T01:58:17.687Z,8.00
2023-01-08T02:02:00.372Z,7.90
2023-01-08T02:05:59.004Z,7.90
2023-01-08T02:09:46.963Z,7.80
2023-01-08T02:13:33.684Z,7.80
2023-01-08T02:17:28.085Z,7.70
2023-01-08T02:21:16.902Z,7.70
2023-01-08T02:25:11.210Z,7.60
2023-01-08T02:29:05.381Z,7.60
2023-01-08T02:32:47.139Z,7.60
2023-01-08T02:36:44.921Z,7.50
2023-01-08T02:40:35.559Z,7.50
2023-01-08T02:44:25.930Z,7.40
2023-01-08T02:48:26.014Z,7.40
2023-01-08T02:52:10.835Z,7.40
2023-01-08T02:55:57.647Z,7.40
2023-01-08T02:59:42.945Z,7.40
2023-01-08T03:03:27.813Z,7.40
2023-01-08T03:07:09.971Z,7.40
2023-01-08T03:10:59.374Z,7.40
2023-01-08T03:14:50.833Z,7.40
2023-01-08T03:18:37.884Z,7.30
2023-01-08T03:22:22.148Z,7.30
2023-01-08T03:26:06.064Z,7.30
2023-01-08T03:29:50.940Z,7.20
2023-01-08T03:33:34.195Z,7.20
2023-01-08T03:37:20.094Z,7.10
2023-01-08T03:41:06.603Z,7.10
2023-01-08T03:44:50.212Z,7.00
2023-01-08T03:48:34.173Z,7.00
2023-01-08T03:52:27.932Z,7.00
2023-01-08T03:56:12.207Z,6.90
2023-01-08T03:59:54.076Z,6.90
2023-01-08T04:03:36.611Z,6.90
2023-01-08T04:07:18.407Z,6.90
2023-01-08T04:11:00.177Z,6.90
2023-01-08T04:14:41.974Z,6.90
2023-01-08T04:18:23.768Z,7.00
2023-01-08T04:22:05.584Z,7.00
2023-01-08T04:25:47.378Z,7.10
2023-01-08T04:29:29.193Z,7.00
2023-01-08T04:33:10.999Z,7.00
2023-01-08T04:36:52.740Z,7.00
2023-01-08T04:40:35.021Z,7.00
2023-01-08T04:44:16.863Z,6.90
2023-01-08T04:47:59.686Z,6.90
2023-01-08T04:51:41.465Z,6.90
2023-01-08T04:55:23.288Z,6.90
2023-01-08T04:59:05.104Z,6.80
2023-01-08T05:02:46.972Z,6.80
2023-01-08T05:06:30.416Z,6.70
2023-01-08T05:10:12.221Z,6.70
2023-01-08T05:13:54.117Z,6.70
2023-01-08T05:17:36.024Z,6.70
2023-01-08T05:21:18.429Z,6.70
2023-01-08T05:25:00.236Z,6.60
2023-01-08T05:28:42.153Z,6.60
2023-01-08T05:32:23.951Z,6.60
2023-01-08T05:36:08.096Z,6.60
2023-01-08T05:39:49.927Z,6.60
2023-01-08T05:43:32.023Z,6.60
2023-01-08T05:47:13.783Z,6.50
2023-01-08T05:50:55.890Z,6.60
2023-01-08T05:54:37.649Z,6.60
2023-01-08T05:58:19.541Z,6.60
2023-01-08T06:02:01.295Z,6.60
2023-01-08T06:05:43.034Z,6.70
2023-01-08T06:09:24.777Z,6.70
2023-01-08T06:13:10.454Z,6.70
2023-01-08T06:16:52.204Z,6.70
2023-01-08T06:20:33.997Z,6.70
2023-01-08T06:24:15.967Z,6.70
2023-01-08T06:27:57.701Z,6.80
2023-01-08T06:31:39.531Z,6.80
2023-01-08T06:35:21.292Z,6.80
2023-01-08T06:39:05.486Z,6.80
2023-01-08T06:42:47.277Z,6.80
2023-01-08T06:46:29.119Z,6.80
2023-01-08T06:50:12.494Z,6.70
2023-01-08T06:53:54.209Z,6.80
2023-01-08T06:57:36.003Z,6.70
2023-01-08T07:01:17.905Z,6.70
2023-01-08T07:04:59.739Z,6.70
2023-01-08T07:08:41.607Z,6.80
2023-01-08T07:12:23.418Z,6.80
2023-01-08T07:16:09.457Z,6.80
2023-01-08T07:19:51.291Z,6.70
2023-01-08T07:23:33.551Z,6.70
2023-01-08T07:27:15.360Z,6.60
2023-01-08T07:30:57.381Z,6.60
2023-01-08T07:34:39.176Z,6.60
2023-01-08T07:38:21.106Z,6.60
2023-01-08T07:42:02.883Z,6.60
2023-01-08T07:45:44.704Z,6.60
2023-01-08T07:49:26.764Z,6.70
2023-01-08T07:53:09.031Z,6.60
2023-01-08T07:56:50.840Z,6.60
2023-01-08T08:00:32.595Z,6.70
2023-01-08T08:04:17.467Z,6.80
2023-01-08T08:07:59.292Z,6.80
2023-01-08T08:11:41.032Z,6.90
2023-01-08T08:15:22.820Z,7.00
2023-01-08T08:19:04.663Z,7.00
2023-01-08T08:22:46.517Z,7.10
2023-01-08T08:26:28.287Z,7.20
2023-01-08T08:30:11.758Z,7.20
2023-01-08T08:33:53.558Z,7.20
2023-01-08T08:37:35.347Z,7.30
2023-01-08T08:41:17.578Z,7.30
2023-01-08T08:44:59.370Z,7.40
2023-01-08T08:48:41.227Z,7.40
2023-01-08T08:52:23.226Z,7.50
2023-01-08T08:56:05.390Z,7.60
2023-01-08T08:59:47.124Z,7.60
2023-01-08T09:03:28.968Z,7.70
2023-01-08T09:07:11.065Z,7.70
2023-01-08T09:10:52.932Z,7.80
2023-01-08T09:14:34.655Z,7.80
2023-01-08T09:18:16.451Z,7.80
2023-01-08T09:21:58.228Z,7.90
2023-01-08T09:25:40.020Z,7.90
2023-01-08T09:29:21.953Z,7.90
2023-01-08T09:33:04.999Z,8.00
2023-01-08T09:36:46.913Z,7.90
2023-01-08T09:40:48.903Z,8.00
2023-01-08T09:44:37.385Z,8.20
2023-01-08T09:48:23.489Z,8.20
2023-01-08T09:52:05.563Z,8.20
2023-01-08T09:56:09.140Z,8.30
2023-01-08T09:59:52.184Z,8.30
2023-01-08T10:04:00.608Z,8.40
2023-01-08T10:07:42.984Z,8.70
2023-01-08T10:11:28.358Z,8.90
2023-01-08T10:15:15.990Z,9.30
2023-01-08T10:18:59.899Z,9.80
2023-01-08T10:22:42.040Z,10.30
2023-01-08T10:26:32.436Z,10.30
2023-01-08T10:30:23.585Z,10.20
2023-01-08T10:34:10.554Z,10.10
2023-01-08T10:37:52.664Z,10.00
2023-01-08T10:41:39.525Z,9.90
2023-01-08T10:45:24.540Z,9.80
2023-01-08T10:49:07.952Z,9.60
2023-01-08T10:53:01.749Z,9.50
2023-01-08T10:56:44.983Z,9.50
2023-01-08T11:00:30.618Z,9.40
2023-01-08T11:04:35.759Z,9.30
2023-01-08T11:08:22.896Z,9.30
2023-01-08T11:12:05.261Z,9.30
2023-01-08T11:15:57.652Z,9.30
2023-01-08T11:19:39.985Z,9.20
2023-01-08T11:23:30.267Z,9.30
2023-01-08T11:27:33.591Z,9.30
2023-01-08T11:31:23.225Z,9.30
2023-01-08T11:35:26.755Z,9.30
2023-01-08T11:39:09.553Z,9.20
2023-01-08T11:43:23.137Z,9.10
2023-01-08T11:47:55.227Z,9.10
2023-01-08T11:52:03.297Z,9.10
2023-01-08T11:55:57.221Z,9.10
2023-01-08T11:59:50.706Z,9.10
2023-01-08T12:03:51.608Z,9.00
2023-01-08T12:07:50.091Z,9.20
2023-01-08T12:11:58.211Z,9.30
2023-01-08T12:16:17.578Z,9.50
2023-01-08T12:20:11.886Z,9.60
2023-01-08T12:24:08.501Z,9.50
2023-01-08T12:28:37.687Z,9.60
2023-01-08T12:32:42.454Z,9.50
2023-01-08T12:36:30.687Z,9.40
2023-01-08T12:40:14.886Z,9.40
2023-01-08T12:44:10.060Z,9.40
2023-01-08T12:47:59.135Z,9.30
2023-01-08T12:52:02.088Z,9.30
2023-01-08T12:56:00.938Z,9.30
2023-01-08T13:00:17.712Z,9.30
2023-01-08T13:04:01.301Z,9.30
2023-01-08T13:08:04.739Z,9.30
2023-01-08T13:11:52.673Z,9.30
2023-01-08T13:15:35.089Z,9.20
2023-01-08T13:19:25.652Z,9.20
2023-01-08T13:23:07.597Z,9.30
2023-01-08T13:26:49.618Z,9.40
2023-01-08T13:30:43.086Z,9.40
2023-01-08T13:34:39.769Z,9.50
2023-01-08T13:38:22.215Z,9.40
2023-01-08T13:42:29.380Z,9.40
2023-01-08T13:46:17.847Z,9.40
2023-01-08T13:50:05.802Z,9.30
2023-01-08T13:53:47.550Z,9.20
2023-01-08T13:57:38.090Z,9.20
2023-01-08T14:01:21.158Z,9.20
2023-01-08T14:05:12.213Z,9.20
2023-01-08T14:09:03.622Z,9.20
2023-01-08T14:12:46.139Z,9.20
2023-01-08T14:16:28.381Z,9.30
2023-01-08T14:20:12.590Z,9.30
2023-01-08T14:23:54.728Z,9.30
2023-01-08T14:27:36.552Z,9.20
2023-01-08T14:31:26.666Z,9.10
2023-01-08T14:35:10.153Z,9.00
2023-01-08T14:38:52.350Z,9.00
2023-01-08T14:42:44.528Z,8.90
2023-01-08T14:46:29.522Z,8.80
2023-01-08T14:50:28.823Z,8.80
2023-01-08T14:54:22.335Z,8.70
2023-01-08T14:58:16.723Z,8.70
2023-01-08T15:02:01.345Z,8.80
2023-01-08T15:05:49.911Z,8.80
2023-01-08T15:09:34.704Z,8.80
2023-01-08T15:13:24.801Z,8.80
2023-01-08T15:17:11.547Z,8.80
2023-01-08T15:20:54.520Z,8.70
2023-01-08T15:24:39.894Z,8.70
2023-01-08T15:28:22.101Z,8.80
2023-01-08T15:32:15.759Z,8.70
2023-01-08T15:35:58.526Z,8.50
2023-01-08T15:39:40.413Z,8.30
2023-01-08T15:43:22.306Z,8.10
2023-01-08T15:47:04.244Z,8.10
2023-01-08T15:50:46.128Z,8.00
2023-01-08T15:54:27.858Z,7.90
2023-01-08T15:58:12.070Z,7.80
2023-01-08T16:01:53.973Z,7.80
2023-01-08T16:05:36.776Z,7.80
2023-01-08T16:09:18.511Z,7.80
2023-01-08T16:13:01.379Z,7.80
2023-01-08T16:16:43.154Z,7.60
2023-01-08T16:20:25.168Z,7.50
2023-01-08T16:24:07.481Z,7.40
2023-01-08T16:27:49.503Z,7.30
2023-01-08T16:31:31.275Z,7.20
2023-01-08T16:35:13.045Z,7.10
2023-01-08T16:38:54.779Z,7.00
2023-01-08T16:42:37.038Z,7.00
2023-01-08T16:46:19.033Z,6.90
2023-01-08T16:50:00.844Z,6.80
2023-01-08T16:53:42.645Z,6.70
2023-01-08T16:57:24.436Z,6.60
2023-01-08T17:01:10.884Z,6.50
2023-01-08T17:04:52.921Z,6.40
2023-01-08T17:08:39.769Z,6.40
2023-01-08T17:12:24.314Z,6.30
2023-01-08T17:16:08.641Z,6.20
2023-01-08T17:19:52.040Z,6.20
2023-01-08T17:23:34.013Z,6.10
2023-01-08T17:27:15.818Z,6.00
2023-01-08T17:31:26.889Z,6.00
2023-01-08T17:35:09.251Z,5.80
2023-01-08T17:38:53.408Z,5.80
2023-01-08T17:42:35.262Z,5.70
2023-01-08T17:46:16.987Z,5.70
2023-01-08T17:49:58.785Z,5.60
2023-01-08T17:53:40.731Z,5.60
2023-01-08T17:57:22.983Z,5.60
2023-01-08T18:01:09.946Z,5.60
2023-01-08T18:04:51.868Z,5.70
2023-01-08T18:08:33.701Z,5.60
2023-01-08T18:12:15.467Z,5.70
2023-01-08T18:16:03.033Z,5.70
2023-01-08T18:19:44.824Z,5.70
2023-01-08T18:23:26.699Z,5.70
2023-01-08T18:27:09.239Z,5.60
2023-01-08T18:30:50.972Z,5.60
2023-01-08T18:34:32.811Z,5.60
2023-01-08T18:38:15.820Z,5.60
2023-01-08T18:42:16.467Z,5.60
2023-01-08T18:46:00.670Z,5.60
2023-01-08T18:49:42.555Z,5.70
2023-01-08T18:53:24.325Z,5.70
2023-01-08T18:57:06.380Z,5.80
2023-01-08T19:00:48.225Z,5.80
2023-01-08T19:04:30.062Z,5.90
2023-01-08T19:08:11.907Z,6.00
2023-01-08T19:11:53.786Z,6.10
2023-01-08T19:15:36.081Z,6.20
2023-01-08T19:19:19.454Z,6.30
2023-01-08T19:23:01.788Z,6.30
2023-01-08T19:26:44.279Z,6.30
2023-01-08T19:30:26.200Z,6.40
2023-01-08T19:34:09.185Z,6.40
2023-01-08T19:37:51.030Z,6.60
2023-01-08T19:41:51.777Z,6.60
2023-01-08T19:45:37.058Z,6.70
2023-01-08T19:49:18.851Z,6.80
2023-01-08T19:53:00.618Z,6.80
2023-01-08T19:56:42.413Z,6.90
2023-01-08T20:00:24.173Z,6.90
2023-01-08T20:04:05.940Z,7.00
2023-01-08T20:07:47.682Z,7.00
2023-01-08T20:11:29.858Z,7.10
2023-01-08T20:15:11.607Z,7.10
2023-01-08T20:19:03.458Z,7.20
2023-01-08T20:22:45.212Z,7.20
2023-01-08T20:26:28.549Z,7.20
2023-01-08T20:30:10.851Z,7.20
2023-01-08T20:33:53.107Z,7.20
2023-01-08T20:37:34.938Z,7.20
2023-01-08T20:41:16.698Z,7.30
2023-01-08T20:44:58.428Z,7.20
2023-01-08T20:48:47.768Z,7.30
2023-01-08T20:52:30.639Z,7.30
2023-01-08T20:56:14.497Z,7.40
2023-01-08T20:59:56.327Z,7.40
2023-01-08T21:03:39.115Z,7.50
2023-01-08T21:07:20.924Z,7.50
2023-01-08T21:11:05.175Z,7.50
2023-01-08T21:14:46.941Z,7.50
2023-01-08T21:18:29.521Z,7.50
2023-01-08T21:22:11.281Z,7.60
2023-01-08T21:26:06.137Z,7.60
2023-01-08T21:29:47.991Z,7.60
2023-01-08T21:33:29.743Z,7.60
2023-01-08T21:37:11.984Z,7.70
2023-01-08T21:41:01.399Z,7.60
2023-01-08T21:45:01.717Z,7.70
2023-01-08T21:48:44.723Z,7.60
2023-01-08T21:52:45.240Z,7.60
2023-01-08T21:56:28.595Z,7.60
2023-01-08T22:00:11.764Z,7.60
2023-01-08T22:03:53.561Z,7.60
2023-01-08T22:07:35.516Z,7.50
2023-01-08T22:11:17.319Z,7.50
2023-01-08T22:14:59.322Z,7.50
2023-01-08T22:18:41.254Z,7.50
2023-01-08T22:22:23.075Z,7.60
2023-01-08T22:26:06.969Z,7.60
2023-01-08T22:29:49.506Z,7.60
2023-01-08T22:33:31.263Z,7.70
2023-01-08T22:37:13.020Z,7.70
2023-01-08T22:40:55.645Z,7.70
2023-01-08T22:44:37.426Z,7.70
2023-01-08T22:48:19.228Z,7.60
2023-01-08T22:52:00.968Z,7.60
2023-01-08T22:55:47.366Z,7.50
2023-01-08T22:59:29.472Z,7.40
2023-01-08T23:03:11.627Z,7.30
2023-01-08T23:06:53.460Z,7.30
2023-01-08T23:10:35.310Z,7.20
2023-01-08T23:14:17.085Z,7.20
2023-01-08T23:17:58.870Z,7.20
2023-01-08T23:21:40.658Z,7.20
2023-01-08T23:25:22.432Z,7.10
2023-01-08T23:29:04.646Z,7.10
2023-01-08T23:32:46.388Z,7.10
2023-01-08T23:36:28.132Z,7.00
2023-01-08T23:40:10.624Z,6.90
2023-01-08T23:43:52.422Z,6.90
2023-01-08T23:47:34.187Z,6.90
2023-01-08T23:51:15.903Z,7.00
2023-01-08T23:54:57.672Z,6.90
2023-01-08T23:58:39.528Z,7.00
